Terminal Aerodrome Forecast
Issued by NWS

Home | Current Version | Previous Version | Graphics & Text | Print | Product List | Glossary On
Versions: 1 2 3 4 5 6 7 8 9 10 11 12 13 14
000
FTUS43 KICT 051730
TAFRSL
TAF
KRSL 051730Z 0518/0618 18022G30KT P6SM BKN300
     FM060200 18017KT P6SM BKN300=

USA.gov is the U.S. government's official web portal to all federal, state and local government web resources and services.